This is the latest recevied weather packets stored in our database for station/object NY3Q. If no packets are shown the sender has not sent any weather packets the latest 10 day(s).
| Time | Temp. | Humidity | Pressure | Rain* | Wind** | Luminosity | Snow |
|---|---|---|---|---|---|---|---|
| 1777999897 | 28.33° C | 47% | 1017.9 hPa | 0 mm | - | 647 W/m² | - |
| 1777999592 | 27.78° C | 50% | 1017.9 hPa | 0 mm | - | 593 W/m² | - |
| 1777999290 | 27.78° C | 46% | 1017.8 hPa | 0 mm | - | 631 W/m² | - |
| 1777998989 | 27.22° C | 50% | 1017.7 hPa | 0 mm | - | 646 W/m² | - |
| 1777998685 | 27.22° C | 48% | 1017.9 hPa | 0 mm | - | 612 W/m² | - |
| 1777998383 | 27.78° C | 45% | 1018 hPa | 0 mm | - | 650 W/m² | - |
| 1777998081 | 27.78° C | 46% | 1018 hPa | 0 mm | - | 637 W/m² | - |
| 1777997778 | 27.78° C | 49% | 1017.8 hPa | 0 mm | - | 631 W/m² | - |
| 1777997475 | 27.78° C | 48% | 1017.7 hPa | 0 mm | - | 624 W/m² | - |
| 1777997173 | 27.78° C | 48% | 1017.9 hPa | 0 mm | - | 614 W/m² | - |
| 1777996870 | 27.22° C | 48% | 1017.8 hPa | 0 mm | - | 605 W/m² | - |
| 1777996566 | 26.67° C | 48% | 1017.9 hPa | 0 mm | - | 598 W/m² | - |
| 1777996262 | 27.22° C | 46% | 1018.1 hPa | 0 mm | - | 594 W/m² | - |
| 1777995958 | 27.22° C | 48% | 1018 hPa | 0 mm | - | 583 W/m² | - |
| 1777995655 | 27.22° C | 47% | 1017.8 hPa | 0 mm | - | 576 W/m² | - |
| 1777995352 | 26.67° C | 52% | 1017.6 hPa | 0 mm | - | 569 W/m² | - |
| 1777995049 | 26.67° C | 50% | 1017.9 hPa | 0 mm | - | 562 W/m² | - |
| 1777994746 | 26.67° C | 47% | 1018 hPa | 0 mm | - | 552 W/m² | - |
| 1777994442 | 27.22° C | 49% | 1017.7 hPa | 0 mm | - | 540 W/m² | - |
| 1777994137 | 27.22° C | 48% | 1017.9 hPa | 0 mm | - | 515 W/m² | - |
| 1777993835 | 26.67° C | 49% | 1017.7 hPa | 0 mm | - | 524 W/m² | - |
| 1777993531 | 26.67° C | 50% | 1017.8 hPa | 0 mm | - | 513 W/m² | - |
| 1777993227 | 27.22° C | 46% | 1018 hPa | 0 mm | - | 503 W/m² | - |
| 1777992923 | 27.22° C | 49% | 1017.6 hPa | 0 mm | - | 493 W/m² | - |
| 1777992622 | 26.67° C | 49% | 1017.9 hPa | 0 mm | - | 483 W/m² | - |
* Rain latest hour (hover to see other rain measurements)
** Current wind speed in m/s (hover to see current wind gust speed)